createdAt,value
2019-05-21T00:01:46.582Z,679.67
2019-05-21T00:04:27.844Z,720.43
2019-05-21T00:06:48.982Z,607.33
2019-05-21T00:09:19.639Z,634.00
2019-05-21T00:11:49.964Z,545.47
2019-05-21T00:14:20.310Z,484.23
2019-05-21T00:16:51.023Z,388.93
2019-05-21T00:19:21.615Z,312.30
2019-05-21T00:21:51.926Z,271.73
2019-05-21T00:24:22.720Z,299.13
2019-05-21T00:26:53.414Z,255.80
2019-05-21T00:29:59.562Z,284.57
2019-05-21T00:33:05.783Z,350.93
2019-05-21T00:36:12.030Z,275.37
2019-05-21T00:39:19.992Z,267.27
2019-05-21T00:42:02.632Z,418.70
2019-05-21T00:44:39.684Z,511.77
2019-05-21T00:47:11.725Z,533.20
2019-05-21T00:49:42.442Z,441.93
2019-05-21T00:52:12.774Z,489.37
2019-05-21T00:54:43.383Z,480.50
2019-05-21T00:57:13.764Z,809.27
2019-05-21T00:59:44.060Z,388.53
2019-05-21T01:02:14.503Z,177.07
2019-05-21T01:04:59.556Z,309.33
2019-05-21T01:07:17.279Z,370.63
2019-05-21T01:09:47.985Z,465.57
2019-05-21T01:12:18.432Z,458.03
2019-05-21T01:14:49.052Z,601.70
2019-05-21T01:17:19.789Z,574.23
2019-05-21T01:19:50.189Z,649.43
2019-05-21T01:22:20.782Z,725.97
2019-05-21T01:24:51.460Z,756.83
2019-05-21T01:27:22.865Z,589.60
2019-05-21T01:29:53.180Z,604.50
2019-05-21T01:32:23.918Z,600.07
2019-05-21T01:34:54.214Z,547.97
2019-05-21T01:37:24.558Z,504.47
2019-05-21T01:39:55.228Z,464.90
2019-05-21T01:42:25.706Z,383.03
2019-05-21T01:44:56.198Z,89.60
2019-05-21T01:47:26.559Z,76.27
2019-05-21T01:49:56.885Z,38.43
2019-05-21T01:52:27.588Z,58.17
2019-05-21T01:54:57.995Z,74.70
2019-05-21T01:57:28.280Z,64.03
2019-05-21T01:59:59.002Z,152.60
2019-05-21T02:02:29.577Z,62.00
2019-05-21T02:04:59.870Z,141.43
2019-05-21T02:07:30.619Z,74.77
2019-05-21T02:10:01.547Z,134.37
2019-05-21T02:12:32.050Z,143.77
2019-05-21T02:15:02.383Z,104.63
2019-05-21T02:17:32.720Z,174.17
2019-05-21T02:20:03.518Z,260.93
2019-05-21T02:22:34.098Z,119.80
2019-05-21T02:25:04.971Z,160.10
2019-05-21T02:27:35.682Z,61.70
2019-05-21T02:30:09.491Z,52.63
2019-05-21T02:32:39.876Z,105.07
2019-05-21T02:35:11.152Z,176.63
2019-05-21T02:37:41.748Z,135.87
2019-05-21T02:40:12.948Z,152.60
2019-05-21T02:42:43.393Z,362.70
2019-05-21T02:45:14.177Z,335.37
2019-05-21T02:47:44.892Z,157.93
2019-05-21T02:50:15.942Z,177.00
2019-05-21T02:52:46.267Z,158.93
2019-05-21T02:55:17.211Z,257.60
2019-05-21T02:57:48.718Z,135.47
2019-05-21T03:00:50.484Z,106.47
2019-05-21T03:03:23.976Z,153.33
2019-05-21T03:06:12.306Z,174.57
2019-05-21T03:08:26.703Z,272.77
2019-05-21T03:10:57.028Z,350.80
2019-05-21T03:13:27.860Z,339.07
2019-05-21T03:15:58.160Z,234.17
2019-05-21T03:18:28.495Z,264.70
2019-05-21T03:20:59.115Z,397.43
2019-05-21T03:23:29.588Z,535.73
2019-05-21T03:25:59.927Z,520.00
2019-05-21T03:28:30.298Z,552.53
2019-05-21T03:31:00.773Z,624.50
2019-05-21T03:33:31.045Z,623.23
2019-05-21T03:36:01.902Z,711.17
2019-05-21T03:38:32.638Z,688.40
2019-05-21T03:41:02.938Z,522.10
2019-05-21T03:43:33.382Z,523.33
2019-05-21T03:46:04.182Z,381.17
2019-05-21T03:48:34.537Z,437.47
2019-05-21T03:51:05.453Z,664.03
2019-05-21T03:53:35.785Z,682.57
2019-05-21T03:56:06.666Z,724.47
2019-05-21T03:58:37.123Z,775.13
2019-05-21T04:01:07.411Z,792.53
2019-05-21T04:03:38.022Z,776.73
2019-05-21T04:06:08.776Z,861.30
2019-05-21T04:08:39.118Z,898.57
2019-05-21T04:11:09.448Z,903.77
2019-05-21T04:13:40.218Z,939.90
2019-05-21T04:16:38.217Z,865.40
2019-05-21T04:19:12.219Z,903.23
2019-05-21T04:21:43.025Z,923.63
2019-05-21T04:24:13.396Z,915.87
2019-05-21T04:26:43.818Z,879.80
2019-05-21T04:29:14.123Z,886.20
2019-05-21T04:31:44.584Z,651.43
2019-05-21T04:34:15.261Z,462.67
2019-05-21T04:36:45.616Z,451.67
2019-05-21T04:39:16.019Z,459.23
2019-05-21T04:41:46.727Z,846.30
2019-05-21T04:44:17.310Z,745.23
2019-05-21T04:46:47.834Z,858.17
2019-05-21T04:49:18.533Z,799.33
2019-05-21T04:51:49.286Z,969.77
2019-05-21T04:54:19.672Z,990.80
2019-05-21T04:56:50.031Z,995.27
2019-05-21T04:59:20.332Z,861.83
2019-05-21T05:01:51.003Z,905.30
2019-05-21T05:04:22.308Z,683.13
2019-05-21T05:06:53.000Z,521.70
2019-05-21T05:09:23.675Z,529.67
2019-05-21T05:11:54.238Z,623.03
2019-05-21T05:14:24.539Z,656.20
2019-05-21T05:16:55.366Z,646.57
2019-05-21T05:19:26.079Z,659.70
2019-05-21T05:21:56.423Z,662.90
2019-05-21T05:24:26.829Z,505.57
2019-05-21T05:26:57.152Z,616.57
2019-05-21T05:29:27.913Z,553.37
2019-05-21T05:31:58.592Z,478.23
2019-05-21T05:34:28.929Z,405.03
2019-05-21T05:36:59.669Z,399.63
2019-05-21T05:39:30.187Z,349.67
2019-05-21T05:42:00.537Z,328.03
2019-05-21T05:44:31.153Z,282.73
2019-05-21T05:47:01.791Z,281.40
2019-05-21T05:49:37.324Z,314.50
2019-05-21T05:52:07.703Z,336.33
2019-05-21T05:54:39.064Z,453.20
2019-05-21T05:57:09.412Z,567.10
2019-05-21T05:59:40.264Z,563.23
2019-05-21T06:02:10.676Z,524.40
2019-05-21T06:04:41.110Z,703.27
2019-05-21T06:07:11.803Z,723.47
2019-05-21T06:09:42.153Z,766.50
2019-05-21T06:12:12.732Z,748.43
2019-05-21T06:14:43.398Z,833.07
2019-05-21T06:17:13.862Z,887.67
2019-05-21T06:19:44.174Z,889.03
2019-05-21T06:22:14.771Z,785.67
2019-05-21T06:24:45.415Z,668.30
2019-05-21T06:27:15.854Z,598.53
2019-05-21T06:29:46.544Z,421.17
2019-05-21T06:32:16.884Z,318.63
2019-05-21T06:34:48.768Z,358.53
2019-05-21T06:37:19.274Z,96.97
2019-05-21T06:39:49.579Z,126.90
2019-05-21T06:42:20.279Z,117.20
2019-05-21T06:44:50.842Z,119.20
2019-05-21T06:47:21.199Z,422.10
2019-05-21T06:49:51.828Z,573.33
2019-05-21T06:52:22.278Z,681.57
2019-05-21T06:54:52.581Z,706.40
2019-05-21T06:57:23.162Z,690.23
2019-05-21T06:59:53.878Z,604.87
2019-05-21T07:02:24.256Z,639.90
2019-05-21T07:04:54.774Z,632.43
2019-05-21T07:07:25.303Z,574.37
2019-05-21T07:09:56.069Z,600.40
2019-05-21T07:12:28.441Z,514.83
2019-05-21T07:14:58.791Z,532.73
2019-05-21T07:17:29.348Z,551.00
2019-05-21T07:20:00.136Z,478.10
2019-05-21T07:22:30.492Z,499.83
2019-05-21T07:25:01.283Z,353.30
2019-05-21T07:27:33.097Z,330.87
2019-05-21T07:30:03.419Z,327.10
2019-05-21T07:32:34.898Z,301.97
2019-05-21T07:35:06.178Z,431.77
2019-05-21T07:37:36.532Z,225.73
2019-05-21T07:40:07.790Z,272.27
2019-05-21T07:42:38.447Z,239.13
2019-05-21T07:45:09.689Z,189.37
2019-05-21T07:47:40.087Z,319.27
2019-05-21T07:50:10.791Z,129.07
2019-05-21T07:52:41.168Z,94.37
2019-05-21T07:55:11.807Z,199.33
2019-05-21T07:57:42.418Z,451.77
2019-05-21T08:00:13.410Z,444.07
2019-05-21T08:02:43.703Z,522.20
2019-05-21T08:05:14.359Z,485.73
2019-05-21T08:07:44.665Z,457.07
2019-05-21T08:10:15.606Z,485.80
2019-05-21T08:12:46.316Z,520.40
2019-05-21T08:15:16.830Z,412.07
2019-05-21T08:17:47.574Z,425.47
2019-05-21T08:20:18.572Z,470.10
2019-05-21T08:22:48.875Z,407.37
2019-05-21T08:25:19.256Z,464.93
2019-05-21T08:27:49.781Z,433.27
2019-05-21T08:30:20.433Z,500.67
2019-05-21T08:32:50.809Z,459.43
2019-05-21T08:35:21.622Z,508.03
2019-05-21T08:37:51.924Z,506.97
2019-05-21T08:40:22.655Z,578.40
2019-05-21T08:42:52.964Z,638.10
2019-05-21T08:45:23.748Z,505.47
2019-05-21T08:47:54.456Z,535.57
2019-05-21T08:50:24.786Z,447.27
2019-05-21T08:52:55.082Z,468.20
2019-05-21T08:55:25.525Z,489.93
2019-05-21T09:00:28.303Z,526.83
2019-05-21T09:02:59.302Z,582.17
2019-05-21T09:03:13.779Z,536.10
2019-05-21T09:05:29.819Z,530.27
2019-05-21T09:08:00.216Z,535.33
2019-05-21T09:10:30.956Z,535.33
2019-05-21T09:13:01.266Z,530.43
2019-05-21T09:15:31.971Z,573.97
2019-05-21T09:18:02.309Z,543.97
2019-05-21T09:20:32.964Z,580.27
2019-05-21T09:23:03.490Z,556.10
2019-05-21T09:25:34.204Z,568.47
2019-05-21T09:28:04.564Z,595.63
2019-05-21T09:30:35.345Z,548.03
2019-05-21T09:33:05.973Z,588.93
2019-05-21T09:35:36.347Z,600.73
2019-05-21T09:38:06.890Z,599.27
2019-05-21T09:40:37.837Z,620.93
2019-05-21T09:43:08.326Z,593.93
2019-05-21T09:45:39.104Z,615.20
2019-05-21T09:48:09.597Z,449.17
2019-05-21T09:50:40.252Z,519.43
2019-05-21T09:53:10.646Z,413.80
2019-05-21T09:55:41.008Z,487.87
2019-05-21T09:58:28.869Z,390.80
2019-05-21T10:01:18.500Z,485.53
2019-05-21T10:03:52.354Z,334.33
2019-05-21T10:06:22.922Z,345.07
2019-05-21T10:08:53.544Z,256.17
2019-05-21T10:11:23.900Z,284.80
2019-05-21T10:13:54.311Z,287.33
2019-05-21T10:16:24.874Z,371.40
2019-05-21T10:18:55.605Z,316.53
2019-05-21T10:21:26.209Z,443.63
2019-05-21T10:23:56.495Z,663.90
2019-05-21T10:26:27.085Z,429.83
2019-05-21T10:28:57.891Z,368.77
2019-05-21T10:31:28.173Z,376.40
2019-05-21T10:33:58.551Z,365.57
2019-05-21T10:36:28.988Z,594.10
2019-05-21T10:38:59.297Z,418.63
2019-05-21T10:41:29.636Z,354.80
2019-05-21T10:44:00.263Z,345.83
2019-05-21T10:46:30.783Z,315.43
2019-05-21T10:49:01.585Z,391.87
2019-05-21T10:51:31.870Z,373.27
2019-05-21T10:54:02.338Z,494.30
2019-05-21T10:56:46.786Z,457.90
2019-05-21T10:59:05.289Z,387.40
2019-05-21T11:01:57.679Z,373.67
2019-05-21T11:04:47.310Z,347.20
2019-05-21T11:07:19.214Z,613.63
2019-05-21T11:09:49.574Z,275.33
2019-05-21T11:12:20.308Z,212.33
2019-05-21T11:14:50.997Z,284.43
2019-05-21T11:17:21.568Z,247.70
2019-05-21T11:19:52.007Z,692.20
2019-05-21T11:22:22.387Z,136.00
2019-05-21T11:24:52.948Z,214.20
2019-05-21T11:27:23.874Z,219.53
2019-05-21T11:29:54.213Z,272.73
2019-05-21T11:32:25.017Z,324.53
2019-05-21T11:34:55.998Z,330.27
2019-05-21T11:37:26.318Z,355.10
2019-05-21T11:39:57.145Z,604.87
2019-05-21T11:42:27.739Z,658.93
2019-05-21T11:44:58.085Z,600.20
2019-05-21T11:47:28.594Z,608.90
2019-05-21T11:49:59.162Z,356.23
2019-05-21T11:52:29.460Z,751.23
2019-05-21T11:54:59.877Z,334.13
2019-05-21T11:57:30.261Z,504.23
2019-05-21T12:00:00.602Z,317.27
2019-05-21T12:02:30.912Z,330.60
2019-05-21T12:05:01.656Z,335.73
2019-05-21T12:07:32.035Z,477.70
2019-05-21T12:10:02.376Z,360.20
2019-05-21T12:12:33.073Z,338.17
2019-05-21T12:15:03.893Z,430.33
2019-05-21T12:17:34.182Z,249.57
2019-05-21T12:20:05.467Z,371.30
2019-05-21T12:22:35.874Z,262.87
2019-05-21T12:25:06.900Z,203.77
2019-05-21T12:27:37.283Z,196.97
2019-05-21T12:30:08.337Z,232.73
2019-05-21T12:32:40.250Z,236.53
2019-05-21T12:35:11.359Z,230.80
2019-05-21T12:37:41.763Z,210.17
2019-05-21T12:40:13.316Z,210.23
2019-05-21T12:42:44.079Z,244.97
2019-05-21T12:45:14.689Z,208.23
2019-05-21T12:47:45.071Z,193.40
2019-05-21T12:50:16.040Z,223.83
2019-05-21T12:52:46.327Z,250.93
2019-05-21T12:55:16.976Z,202.63
2019-05-21T12:57:47.507Z,234.23
2019-05-21T13:00:19.436Z,230.90
2019-05-21T13:02:50.010Z,197.77
2019-05-21T13:05:20.352Z,156.23
2019-05-21T13:07:51.922Z,176.80
2019-05-21T13:10:22.759Z,163.92
2019-05-21T13:12:53.077Z,185.18
2019-05-21T13:15:23.495Z,221.90
2019-05-21T13:17:54.076Z,577.90
2019-05-21T13:20:24.521Z,342.50
2019-05-21T13:22:54.901Z,293.30
2019-05-21T13:25:25.953Z,274.23
2019-05-21T13:27:57.690Z,287.80
2019-05-21T13:30:28.833Z,263.10
2019-05-21T13:32:59.079Z,254.30
2019-05-21T13:35:29.570Z,238.97
2019-05-21T13:38:00.472Z,218.90
2019-05-21T13:40:32.550Z,257.93
2019-05-21T13:43:02.946Z,227.30
2019-05-21T13:45:34.507Z,197.73
2019-05-21T13:48:05.055Z,184.97
2019-05-21T13:50:35.338Z,185.87
2019-05-21T13:53:06.189Z,210.23
2019-05-21T13:55:36.840Z,205.83
2019-05-21T13:58:07.377Z,206.57
2019-05-21T14:00:42.434Z,197.33
2019-05-21T14:03:13.285Z,374.03
2019-05-21T14:05:44.160Z,344.97
2019-05-21T14:08:14.752Z,265.63
2019-05-21T14:10:45.159Z,386.53
2019-05-21T14:13:15.882Z,219.07
2019-05-21T14:15:47.252Z,203.60
2019-05-21T14:18:17.588Z,220.07
2019-05-21T14:20:47.989Z,160.50
2019-05-21T14:23:18.782Z,179.73
2019-05-21T14:25:49.082Z,184.07
2019-05-21T14:28:20.000Z,184.53
2019-05-21T14:30:50.800Z,164.23
2019-05-21T14:33:21.183Z,149.77
2019-05-21T14:35:51.732Z,200.37
2019-05-21T14:38:22.036Z,184.50
2019-05-21T14:40:52.835Z,123.80
2019-05-21T14:43:23.572Z,119.83
2019-05-21T14:45:53.962Z,251.58
2019-05-21T14:48:24.445Z,176.10
2019-05-21T14:50:54.863Z,144.80
2019-05-21T14:53:25.158Z,119.70
2019-05-21T14:55:55.485Z,119.80
2019-05-21T14:58:26.131Z,91.37
2019-05-21T15:00:56.477Z,88.58
2019-05-21T15:03:29.508Z,84.10
2019-05-21T15:05:59.267Z,137.30
2019-05-21T15:08:29.678Z,71.97
2019-05-21T15:11:01.354Z,63.15
2019-05-21T15:13:31.646Z,63.40
2019-05-21T15:16:01.981Z,57.70
2019-05-21T15:18:32.434Z,66.05
2019-05-21T15:21:10.954Z,201.00
2019-05-21T15:23:42.032Z,63.38
2019-05-21T15:26:13.411Z,73.05
2019-05-21T15:28:44.822Z,133.33
2019-05-21T15:31:15.249Z,285.53
2019-05-21T15:33:45.979Z,251.63
2019-05-21T15:36:16.460Z,209.17
2019-05-21T15:38:50.502Z,259.47
2019-05-21T15:41:18.988Z,431.77
2019-05-21T15:43:49.336Z,285.43
2019-05-21T15:46:20.130Z,232.43
2019-05-21T15:48:50.810Z,173.40
2019-05-21T15:51:21.296Z,303.07
2019-05-21T15:53:51.939Z,237.97
2019-05-21T15:56:22.828Z,224.47
2019-05-21T15:58:54.094Z,228.37
2019-05-21T16:01:24.844Z,229.30
2019-05-21T16:03:55.767Z,248.87
2019-05-21T16:06:26.160Z,331.43
2019-05-21T16:08:57.844Z,250.13
2019-05-21T16:11:29.366Z,217.73
2019-05-21T16:13:59.802Z,264.37
2019-05-21T16:16:30.111Z,213.03
2019-05-21T16:19:00.558Z,218.50
2019-05-21T16:21:30.867Z,200.83
2019-05-21T16:24:01.432Z,207.10
2019-05-21T16:26:32.076Z,225.57
2019-05-21T16:29:02.608Z,264.90
2019-05-21T16:31:32.940Z,253.83
2019-05-21T16:34:03.739Z,247.27
2019-05-21T16:36:34.506Z,307.30
2019-05-21T16:39:07.366Z,320.83
2019-05-21T16:41:44.640Z,287.47
2019-05-21T16:44:10.170Z,311.20
2019-05-21T16:46:42.535Z,325.40
2019-05-21T16:49:12.772Z,327.93
2019-05-21T16:51:43.654Z,318.73
2019-05-21T16:54:14.742Z,292.17
2019-05-21T16:56:45.409Z,312.23
2019-05-21T16:59:15.832Z,279.20
2019-05-21T17:01:46.384Z,293.57
2019-05-21T17:04:16.953Z,306.80
2019-05-21T17:06:47.271Z,308.93
2019-05-21T17:09:17.775Z,318.33
2019-05-21T17:11:59.591Z,326.27
2019-05-21T17:14:20.546Z,329.13
2019-05-21T17:16:50.985Z,311.20
2019-05-21T17:19:21.320Z,325.40
2019-05-21T17:21:52.037Z,329.70
2019-05-21T17:24:22.699Z,304.33
2019-05-21T17:26:53.091Z,330.53
2019-05-21T17:29:23.883Z,330.60
2019-05-21T17:31:54.672Z,327.10
2019-05-21T17:34:25.293Z,269.87
2019-05-21T17:36:55.608Z,343.30
2019-05-21T17:39:26.502Z,283.73
2019-05-21T17:41:56.789Z,315.90
2019-05-21T17:44:27.252Z,310.70
2019-05-21T17:46:58.052Z,285.37
2019-05-21T17:49:28.591Z,260.13
2019-05-21T17:51:59.429Z,217.97
2019-05-21T17:54:29.925Z,171.90
2019-05-21T17:57:00.275Z,177.60
2019-05-21T17:59:32.208Z,305.00
2019-05-21T18:02:04.439Z,407.43
2019-05-21T18:04:34.768Z,318.63
2019-05-21T18:07:07.900Z,305.53
2019-05-21T18:09:38.611Z,256.90
2019-05-21T18:12:10.954Z,220.37
2019-05-21T18:14:42.196Z,224.87
2019-05-21T18:17:16.190Z,264.90
2019-05-21T18:19:49.239Z,537.30
2019-05-21T18:22:22.104Z,618.10
2019-05-21T18:24:53.379Z,713.43
2019-05-21T18:27:24.230Z,599.70
2019-05-21T18:29:56.726Z,197.17
2019-05-21T18:32:27.698Z,128.23
2019-05-21T18:34:58.094Z,266.97
2019-05-21T18:37:28.771Z,196.37
2019-05-21T18:39:59.687Z,38.57
2019-05-21T18:42:30.274Z,43.33
2019-05-21T18:45:00.675Z,68.30
2019-05-21T18:47:31.369Z,22.57
2019-05-21T18:50:01.853Z,122.70
2019-05-21T18:52:32.791Z,144.40
2019-05-21T18:55:03.132Z,136.63
2019-05-21T18:57:33.582Z,179.63
2019-05-21T19:00:04.271Z,210.87
2019-05-21T19:02:34.843Z,333.03
2019-05-21T19:05:05.818Z,347.20
2019-05-21T19:07:37.088Z,387.33
2019-05-21T19:10:07.837Z,455.83
2019-05-21T19:12:40.064Z,464.57
2019-05-21T19:15:11.678Z,528.80
2019-05-21T19:17:42.080Z,560.63
2019-05-21T19:20:13.784Z,595.97
2019-05-21T19:22:44.678Z,639.27
2019-05-21T19:25:16.414Z,713.00
2019-05-21T19:27:47.182Z,665.00
2019-05-21T19:30:17.778Z,680.40
2019-05-21T19:32:48.345Z,598.13
2019-05-21T19:35:19.094Z,658.67
2019-05-21T19:37:49.629Z,734.20
2019-05-21T19:40:20.163Z,744.73
2019-05-21T19:42:54.957Z,752.53
2019-05-21T19:45:22.848Z,746.60
2019-05-21T19:47:53.226Z,678.93
2019-05-21T19:50:24.966Z,433.17
2019-05-21T19:52:55.575Z,379.47
2019-05-21T19:55:27.482Z,335.13
2019-05-21T19:57:58.084Z,325.70
2019-05-21T20:00:30.799Z,327.87
2019-05-21T20:03:01.733Z,374.67
2019-05-21T20:05:33.286Z,173.83
2019-05-21T20:08:04.256Z,187.97
2019-05-21T20:10:35.033Z,160.40
2019-05-21T20:13:05.705Z,238.83
2019-05-21T20:15:36.318Z,186.63
2019-05-21T20:18:07.828Z,121.70
2019-05-21T20:20:39.052Z,161.77
2019-05-21T20:23:10.695Z,296.97
2019-05-21T20:25:55.514Z,354.87
2019-05-21T20:28:14.743Z,321.90
2019-05-21T20:30:45.446Z,244.77
2019-05-21T20:33:17.192Z,230.70
2019-05-21T20:35:48.615Z,243.33
2019-05-21T20:38:19.685Z,371.47
2019-05-21T20:40:50.026Z,405.53
2019-05-21T20:43:21.173Z,375.07
2019-05-21T20:45:51.861Z,438.27
2019-05-21T20:48:26.350Z,382.00
2019-05-21T20:50:56.958Z,481.67
2019-05-21T20:53:27.750Z,592.77
2019-05-21T20:55:58.097Z,611.93
2019-05-21T20:58:28.996Z,613.63
2019-05-21T21:01:02.377Z,608.67
2019-05-21T21:03:33.709Z,451.37
2019-05-21T21:06:05.063Z,454.70
2019-05-21T21:08:36.624Z,353.03
2019-05-21T21:11:09.117Z,307.33
2019-05-21T21:13:40.587Z,290.17
2019-05-21T21:16:11.437Z,255.97
2019-05-21T21:18:41.916Z,431.20
2019-05-21T21:21:12.871Z,182.27
2019-05-21T21:23:43.522Z,148.97
2019-05-21T21:26:15.004Z,232.23
2019-05-21T21:28:47.096Z,203.30
2019-05-21T21:31:17.420Z,266.57
2019-05-21T21:33:48.438Z,330.43
2019-05-21T21:36:18.875Z,269.47
2019-05-21T21:38:49.493Z,139.27
2019-05-21T21:41:21.358Z,190.97
2019-05-21T21:43:51.598Z,166.13
2019-05-21T21:46:21.925Z,140.33
2019-05-21T21:48:52.475Z,129.63
2019-05-21T21:51:23.193Z,125.40
2019-05-21T21:53:54.163Z,122.07
2019-05-21T21:56:24.974Z,138.97
2019-05-21T21:58:55.437Z,133.70
2019-05-21T22:01:43.479Z,159.17
2019-05-21T22:04:18.375Z,308.83
2019-05-21T22:06:50.988Z,508.43
2019-05-21T22:09:34.850Z,368.93
2019-05-21T22:12:06.490Z,478.47
2019-05-21T22:14:49.599Z,470.80
2019-05-21T22:17:11.911Z,359.63
2019-05-21T22:19:42.275Z,387.17
2019-05-21T22:22:13.421Z,549.77
2019-05-21T22:24:43.745Z,762.87
2019-05-21T22:27:14.066Z,825.30
2019-05-21T22:29:45.633Z,899.50
2019-05-21T22:32:16.978Z,929.73
2019-05-21T22:34:47.285Z,905.40
2019-05-21T22:37:22.333Z,929.47
2019-05-21T22:39:53.432Z,880.10
2019-05-21T22:42:24.948Z,880.07
2019-05-21T22:45:07.533Z,866.70
2019-05-21T22:47:27.834Z,804.77
2019-05-21T22:49:58.129Z,891.93
2019-05-21T22:52:28.720Z,843.60
2019-05-21T22:54:59.375Z,769.67
2019-05-21T22:57:29.722Z,775.63
2019-05-21T23:00:00.066Z,623.60
2019-05-21T23:02:33.722Z,617.90
2019-05-21T23:05:04.237Z,625.23
2019-05-21T23:07:34.813Z,661.17
2019-05-21T23:10:06.323Z,650.50
2019-05-21T23:12:37.070Z,601.80
2019-05-21T23:15:23.716Z,633.27
2019-05-21T23:17:42.980Z,633.67
2019-05-21T23:20:33.978Z,806.40
2019-05-21T23:23:06.103Z,801.80
2019-05-21T23:25:38.687Z,780.30
2019-05-21T23:28:10.118Z,791.90
2019-05-21T23:30:40.919Z,843.07
2019-05-21T23:33:13.148Z,847.40
2019-05-21T23:35:43.811Z,829.10
2019-05-21T23:38:16.640Z,834.73
2019-05-21T23:40:48.630Z,814.07
2019-05-21T23:43:19.530Z,834.80
2019-05-21T23:45:49.825Z,850.73
2019-05-21T23:48:20.942Z,850.80
2019-05-21T23:50:51.707Z,809.30
2019-05-21T23:53:22.448Z,733.37
2019-05-21T23:55:52.761Z,748.53
2019-05-21T23:58:23.943Z,795.47
